sensor_id;sensor_type;location;lat;lon;timestamp;pressure;altitude;pressure_sealevel;temperature;humidity
71857;BME280;63344;46.980;28.882;2023-01-06T00:01:26;100144.72;;;7.55;65.51
71857;BME280;63344;46.980;28.882;2023-01-06T00:03:55;100134.78;;;7.62;65.30
71857;BME280;63344;46.980;28.882;2023-01-06T00:06:27;100136.09;;;7.75;64.96
71857;BME280;63344;46.980;28.882;2023-01-06T00:08:56;100139.38;;;7.82;64.57
71857;BME280;63344;46.980;28.882;2023-01-06T00:11:23;100148.50;;;7.98;64.07
71857;BME280;63344;46.980;28.882;2023-01-06T00:13:51;100144.72;;;8.06;63.95
71857;BME280;63344;46.980;28.882;2023-01-06T00:16:19;100154.28;;;8.10;63.82
71857;BME280;63344;46.980;28.882;2023-01-06T00:18:46;100157.63;;;8.15;64.02
71857;BME280;63344;46.980;28.882;2023-01-06T00:21:14;100168.06;;;8.18;63.61
71857;BME280;63344;46.980;28.882;2023-01-06T00:23:41;100172.34;;;8.22;63.80
71857;BME280;63344;46.980;28.882;2023-01-06T00:26:09;100169.75;;;8.21;63.87
71857;BME280;63344;46.980;28.882;2023-01-06T00:28:37;100175.78;;;8.24;63.95
71857;BME280;63344;46.980;28.882;2023-01-06T00:31:10;100166.81;;;8.28;63.67
71857;BME280;63344;46.980;28.882;2023-01-06T00:33:38;100171.25;;;8.28;63.74
71857;BME280;63344;46.980;28.882;2023-01-06T00:36:06;100173.00;;;8.29;63.91
71857;BME280;63344;46.980;28.882;2023-01-06T00:38:34;100179.91;;;8.33;63.80
71857;BME280;63344;46.980;28.882;2023-01-06T00:41:10;100185.13;;;8.34;63.88
71857;BME280;63344;46.980;28.882;2023-01-06T00:43:59;100184.97;;;8.39;63.47
71857;BME280;63344;46.980;28.882;2023-01-06T00:46:28;100180.44;;;8.43;63.49
71857;BME280;63344;46.980;28.882;2023-01-06T00:48:57;100190.69;;;8.52;63.33
71857;BME280;63344;46.980;28.882;2023-01-06T00:51:35;100193.28;;;8.53;63.39
71857;BME280;63344;46.980;28.882;2023-01-06T00:54:03;100190.50;;;8.56;63.16
71857;BME280;63344;46.980;28.882;2023-01-06T00:56:33;100190.59;;;8.55;63.67
71857;BME280;63344;46.980;28.882;2023-01-06T00:59:01;100196.72;;;8.55;63.34
71857;BME280;63344;46.980;28.882;2023-01-06T01:01:31;100195.00;;;8.54;63.92
71857;BME280;63344;46.980;28.882;2023-01-06T01:03:58;100210.03;;;8.54;63.91
71857;BME280;63344;46.980;28.882;2023-01-06T01:06:26;100201.16;;;8.55;64.89
71857;BME280;63344;46.980;28.882;2023-01-06T01:08:54;100192.47;;;8.51;65.00
71857;BME280;63344;46.980;28.882;2023-01-06T01:11:22;100194.28;;;8.51;64.87
71857;BME280;63344;46.980;28.882;2023-01-06T01:14:09;100190.72;;;8.50;64.96
71857;BME280;63344;46.980;28.882;2023-01-06T01:16:38;100189.94;;;8.48;65.06
71857;BME280;63344;46.980;28.882;2023-01-06T01:19:05;100188.09;;;8.50;65.05
71857;BME280;63344;46.980;28.882;2023-01-06T01:21:33;100185.63;;;8.46;65.24
71857;BME280;63344;46.980;28.882;2023-01-06T01:24:00;100189.25;;;8.43;65.36
71857;BME280;63344;46.980;28.882;2023-01-06T01:26:27;100178.78;;;8.38;65.71
71857;BME280;63344;46.980;28.882;2023-01-06T01:28:56;100185.91;;;8.36;65.56
71857;BME280;63344;46.980;28.882;2023-01-06T01:31:24;100182.59;;;8.31;66.13
71857;BME280;63344;46.980;28.882;2023-01-06T01:33:51;100189.72;;;8.29;65.89
71857;BME280;63344;46.980;28.882;2023-01-06T01:36:20;100195.03;;;8.29;66.28
71857;BME280;63344;46.980;28.882;2023-01-06T01:38:48;100201.13;;;8.31;65.98
71857;BME280;63344;46.980;28.882;2023-01-06T01:41:17;100195.03;;;8.29;66.43
71857;BME280;63344;46.980;28.882;2023-01-06T01:43:54;100191.53;;;8.29;66.39
71857;BME280;63344;46.980;28.882;2023-01-06T01:46:38;100189.94;;;8.23;66.52
71857;BME280;63344;46.980;28.882;2023-01-06T01:49:18;100193.41;;;8.25;67.58
71857;BME280;63344;46.980;28.882;2023-01-06T01:51:48;100202.25;;;8.24;67.72
71857;BME280;63344;46.980;28.882;2023-01-06T01:54:26;100201.72;;;8.14;67.91
71857;BME280;63344;46.980;28.882;2023-01-06T01:57:04;100199.13;;;8.13;68.76
71857;BME280;63344;46.980;28.882;2023-01-06T01:59:33;100204.66;;;8.07;68.90
71857;BME280;63344;46.980;28.882;2023-01-06T02:02:02;100205.56;;;8.06;68.68
71857;BME280;63344;46.980;28.882;2023-01-06T02:04:33;100208.19;;;8.06;69.23
71857;BME280;63344;46.980;28.882;2023-01-06T02:07:02;100187.22;;;8.01;68.97
71857;BME280;63344;46.980;28.882;2023-01-06T02:09:53;100199.63;;;7.99;69.39
71857;BME280;63344;46.980;28.882;2023-01-06T02:12:23;100192.09;;;7.87;69.75
71857;BME280;63344;46.980;28.882;2023-01-06T02:14:50;100189.63;;;7.82;70.78
71857;BME280;63344;46.980;28.882;2023-01-06T02:37:45;100216.78;;;7.87;70.28
71857;BME280;63344;46.980;28.882;2023-01-06T02:43:43;100217.19;;;7.75;70.34
71857;BME280;63344;46.980;28.882;2023-01-06T02:52:14;100239.91;;;7.81;70.39
71857;BME280;63344;46.980;28.882;2023-01-06T02:55:02;100248.75;;;7.80;69.80
71857;BME280;63344;46.980;28.882;2023-01-06T03:00:16;100240.06;;;7.76;69.55
71857;BME280;63344;46.980;28.882;2023-01-06T03:02:52;100248.03;;;7.74;69.57
71857;BME280;63344;46.980;28.882;2023-01-06T03:05:22;100235.78;;;7.72;69.20
71857;BME280;63344;46.980;28.882;2023-01-06T03:07:51;100244.44;;;7.77;69.49
71857;BME280;63344;46.980;28.882;2023-01-06T03:10:21;100236.44;;;7.78;69.26
71857;BME280;63344;46.980;28.882;2023-01-06T03:12:55;100236.44;;;7.78;69.28
71857;BME280;63344;46.980;28.882;2023-01-06T03:15:26;100238.13;;;7.81;68.78
71857;BME280;63344;46.980;28.882;2023-01-06T03:17:54;100234.56;;;7.82;68.92
71857;BME280;63344;46.980;28.882;2023-01-06T03:20:24;100234.53;;;7.84;68.38
71857;BME280;63344;46.980;28.882;2023-01-06T03:22:52;100236.22;;;7.85;68.60
71857;BME280;63344;46.980;28.882;2023-01-06T03:25:24;100234.34;;;7.88;68.73
71857;BME280;63344;46.980;28.882;2023-01-06T03:27:52;100235.28;;;7.87;68.50
71857;BME280;63344;46.980;28.882;2023-01-06T03:30:19;100223.91;;;7.85;68.15
71857;BME280;63344;46.980;28.882;2023-01-06T03:33:00;100232.53;;;7.90;68.18
71857;BME280;63344;46.980;28.882;2023-01-06T03:38:27;100239.63;;;7.88;68.04
71857;BME280;63344;46.980;28.882;2023-01-06T03:44:14;100251.03;;;7.90;68.37
71857;BME280;63344;46.980;28.882;2023-01-06T03:46:53;100248.47;;;7.89;68.46
71857;BME280;63344;46.980;28.882;2023-01-06T03:49:30;100246.66;;;7.89;68.09
71857;BME280;63344;46.980;28.882;2023-01-06T03:52:16;100230.81;;;7.89;68.20
71857;BME280;63344;46.980;28.882;2023-01-06T03:55:09;100265.88;;;7.94;68.35
71857;BME280;63344;46.980;28.882;2023-01-06T03:57:44;100250.16;;;7.90;68.93
71857;BME280;63344;46.980;28.882;2023-01-06T04:00:18;100275.78;;;7.88;69.80
71857;BME280;63344;46.980;28.882;2023-01-06T04:02:46;100267.31;;;7.78;70.40
71857;BME280;63344;46.980;28.882;2023-01-06T04:05:20;100277.50;;;7.62;70.54
71857;BME280;63344;46.980;28.882;2023-01-06T04:07:48;100269.75;;;7.57;70.59
71857;BME280;63344;46.980;28.882;2023-01-06T04:10:18;100248.81;;;7.51;71.05
71857;BME280;63344;46.980;28.882;2023-01-06T04:12:45;100259.44;;;7.48;71.10
71857;BME280;63344;46.980;28.882;2023-01-06T04:15:23;100276.28;;;7.46;70.78
71857;BME280;63344;46.980;28.882;2023-01-06T04:17:52;100283.38;;;7.44;71.15
71857;BME280;63344;46.980;28.882;2023-01-06T04:20:23;100295.63;;;7.46;71.19
71857;BME280;63344;46.980;28.882;2023-01-06T04:22:55;100306.25;;;7.45;71.06
71857;BME280;63344;46.980;28.882;2023-01-06T04:25:24;100308.97;;;7.43;70.70
71857;BME280;63344;46.980;28.882;2023-01-06T04:27:52;100286.94;;;7.43;71.00
71857;BME280;63344;46.980;28.882;2023-01-06T04:30:20;100303.75;;;7.40;70.71
71857;BME280;63344;46.980;28.882;2023-01-06T04:32:52;100298.47;;;7.40;70.43
71857;BME280;63344;46.980;28.882;2023-01-06T04:35:19;100303.66;;;7.43;70.33
71857;BME280;63344;46.980;28.882;2023-01-06T04:37:46;100322.28;;;7.38;70.53
71857;BME280;63344;46.980;28.882;2023-01-06T04:40:14;100300.34;;;7.36;70.68
71857;BME280;63344;46.980;28.882;2023-01-06T04:42:41;100316.19;;;7.36;70.68
71857;BME280;63344;46.980;28.882;2023-01-06T04:45:27;100318.81;;;7.36;70.23
71857;BME280;63344;46.980;28.882;2023-01-06T04:47:55;100331.31;;;7.31;70.74
71857;BME280;63344;46.980;28.882;2023-01-06T04:50:22;100322.59;;;7.29;70.38
71857;BME280;63344;46.980;28.882;2023-01-06T04:52:49;100336.59;;;7.31;70.22
71857;BME280;63344;46.980;28.882;2023-01-06T04:55:17;100345.38;;;7.32;70.68
71857;BME280;63344;46.980;28.882;2023-01-06T04:57:44;100327.16;;;7.23;70.39
71857;BME280;63344;46.980;28.882;2023-01-06T05:00:22;100354.22;;;7.31;70.41
71857;BME280;63344;46.980;28.882;2023-01-06T05:03:34;100368.34;;;7.30;70.81
71857;BME280;63344;46.980;28.882;2023-01-06T05:06:08;100367.53;;;7.28;70.36
71857;BME280;63344;46.980;28.882;2023-01-06T05:08:40;100384.28;;;7.27;70.58
71857;BME280;63344;46.980;28.882;2023-01-06T05:11:13;100386.91;;;7.27;70.02
71857;BME280;63344;46.980;28.882;2023-01-06T05:13:41;100395.81;;;7.24;70.38
71857;BME280;63344;46.980;28.882;2023-01-06T05:16:17;100368.75;;;7.16;70.37
71857;BME280;63344;46.980;28.882;2023-01-06T05:18:46;100397.75;;;7.17;69.92
71857;BME280;63344;46.980;28.882;2023-01-06T05:21:14;100400.44;;;7.16;70.18
71857;BME280;63344;46.980;28.882;2023-01-06T05:23:41;100404.75;;;7.18;69.92
71857;BME280;63344;46.980;28.882;2023-01-06T05:26:25;100420.59;;;7.18;70.18
71857;BME280;63344;46.980;28.882;2023-01-06T05:28:54;100421.44;;;7.21;69.05
71857;BME280;63344;46.980;28.882;2023-01-06T05:31:23;100430.41;;;7.15;69.41
71857;BME280;63344;46.980;28.882;2023-01-06T05:33:51;100427.84;;;7.12;69.48
71857;BME280;63344;46.980;28.882;2023-01-06T05:36:18;100430.41;;;7.15;69.20
71857;BME280;63344;46.980;28.882;2023-01-06T05:38:51;100426.06;;;7.12;69.40
71857;BME280;63344;46.980;28.882;2023-01-06T05:41:20;100422.81;;;7.03;69.13
71857;BME280;63344;46.980;28.882;2023-01-06T05:43:47;100420.94;;;7.06;69.13
71857;BME280;63344;46.980;28.882;2023-01-06T05:46:14;100435.00;;;7.07;69.08
71857;BME280;63344;46.980;28.882;2023-01-06T05:48:42;100440.44;;;7.02;68.95
71857;BME280;63344;46.980;28.882;2023-01-06T05:51:11;100449.28;;;7.01;69.00
71857;BME280;63344;46.980;28.882;2023-01-06T05:53:41;100437.78;;;7.02;68.95
71857;BME280;63344;46.980;28.882;2023-01-06T05:56:12;100467.00;;;6.96;69.09
71857;BME280;63344;46.980;28.882;2023-01-06T05:58:43;100460.03;;;6.93;69.24
71857;BME280;63344;46.980;28.882;2023-01-06T06:01:25;100480.22;;;6.94;68.94
71857;BME280;63344;46.980;28.882;2023-01-06T06:03:53;100484.66;;;6.94;68.74
71857;BME280;63344;46.980;28.882;2023-01-06T06:06:24;100473.25;;;6.93;68.57
71857;BME280;63344;46.980;28.882;2023-01-06T06:08:51;100487.47;;;6.88;69.13
71857;BME280;63344;46.980;28.882;2023-01-06T06:11:19;100470.09;;;6.79;69.10
71857;BME280;63344;46.980;28.882;2023-01-06T06:13:54;100490.16;;;6.85;68.98
71857;BME280;63344;46.980;28.882;2023-01-06T06:16:24;100483.31;;;6.77;68.74
71857;BME280;63344;46.980;28.882;2023-01-06T06:18:54;100478.19;;;6.71;68.58
71857;BME280;63344;46.980;28.882;2023-01-06T06:21:28;100515.81;;;6.80;68.90
71857;BME280;63344;46.980;28.882;2023-01-06T06:23:56;100496.56;;;6.76;68.90
71857;BME280;63344;46.980;28.882;2023-01-06T06:26:44;100526.41;;;6.78;68.61
71857;BME280;63344;46.980;28.882;2023-01-06T06:29:11;100524.72;;;6.75;68.66
71857;BME280;63344;46.980;28.882;2023-01-06T06:31:38;100526.56;;;6.72;68.85
71857;BME280;63344;46.980;28.882;2023-01-06T06:34:06;100508.16;;;6.69;68.64
71857;BME280;63344;46.980;28.882;2023-01-06T06:36:33;100517.72;;;6.73;68.27
71857;BME280;63344;46.980;28.882;2023-01-06T06:39:01;100522.16;;;6.72;68.71
71857;BME280;63344;46.980;28.882;2023-01-06T06:41:28;100545.84;;;6.75;67.90
71857;BME280;63344;46.980;28.882;2023-01-06T06:43:55;100536.13;;;6.76;68.33
71857;BME280;63344;46.980;28.882;2023-01-06T06:46:23;100542.25;;;6.78;67.74
71857;BME280;63344;46.980;28.882;2023-01-06T06:48:50;100523.00;;;6.73;67.94
71857;BME280;63344;46.980;28.882;2023-01-06T06:51:19;100554.63;;;6.76;67.78
71857;BME280;63344;46.980;28.882;2023-01-06T06:53:47;100538.75;;;6.77;67.29
71857;BME280;63344;46.980;28.882;2023-01-06T06:56:15;100573.91;;;6.80;67.74
71857;BME280;63344;46.980;28.882;2023-01-06T06:58:44;100576.63;;;6.75;67.91
71857;BME280;63344;46.980;28.882;2023-01-06T07:01:15;100583.63;;;6.77;67.43
71857;BME280;63344;46.980;28.882;2023-01-06T07:03:44;100596.72;;;6.81;67.21
71857;BME280;63344;46.980;28.882;2023-01-06T07:06:18;100588.88;;;6.79;67.19
71857;BME280;63344;46.980;28.882;2023-01-06T07:08:47;100585.19;;;6.85;67.02
71857;BME280;63344;46.980;28.882;2023-01-06T07:11:14;100594.97;;;6.81;67.02
71857;BME280;63344;46.980;28.882;2023-01-06T07:13:56;100604.50;;;6.87;66.74
71857;BME280;63344;46.980;28.882;2023-01-06T07:16:25;100613.25;;;6.89;66.84
71857;BME280;63344;46.980;28.882;2023-01-06T07:18:54;100610.72;;;6.84;66.59
71857;BME280;63344;46.980;28.882;2023-01-06T07:21:21;100618.66;;;6.84;66.60
71857;BME280;63344;46.980;28.882;2023-01-06T07:23:48;100593.22;;;6.80;66.42
71857;BME280;63344;46.980;28.882;2023-01-06T07:26:18;100631.97;;;6.80;66.33
71857;BME280;63344;46.980;28.882;2023-01-06T07:28:45;100629.22;;;6.84;66.43
71857;BME280;63344;46.980;28.882;2023-01-06T07:31:12;100645.75;;;6.91;66.64
71857;BME280;63344;46.980;28.882;2023-01-06T07:33:40;100630.81;;;6.91;66.11
71857;BME280;63344;46.980;28.882;2023-01-06T07:36:07;100624.59;;;6.92;65.52
71857;BME280;63344;46.980;28.882;2023-01-06T07:38:38;100635.13;;;6.95;65.30
71857;BME280;63344;46.980;28.882;2023-01-06T07:41:26;100639.53;;;6.95;65.74
71857;BME280;63344;46.980;28.882;2023-01-06T07:43:55;100612.22;;;6.96;65.53
71857;BME280;63344;46.980;28.882;2023-01-06T07:46:22;100671.09;;;7.00;65.69
71857;BME280;63344;46.980;28.882;2023-01-06T07:48:50;100675.56;;;6.97;65.60
71857;BME280;63344;46.980;28.882;2023-01-06T07:51:17;100687.78;;;7.02;65.32
71857;BME280;63344;46.980;28.882;2023-01-06T07:53:44;100666.81;;;6.94;65.82
71857;BME280;63344;46.980;28.882;2023-01-06T07:56:17;100685.09;;;7.03;65.76
71857;BME280;63344;46.980;28.882;2023-01-06T07:58:45;100683.38;;;7.01;65.77
71857;BME280;63344;46.980;28.882;2023-01-06T08:01:15;100688.59;;;7.04;65.89
71857;BME280;63344;46.980;28.882;2023-01-06T08:03:42;100690.31;;;7.06;65.67
71857;BME280;63344;46.980;28.882;2023-01-06T08:06:25;100702.69;;;7.03;65.91
71857;BME280;63344;46.980;28.882;2023-01-06T08:08:52;100702.69;;;7.03;66.20
71857;BME280;63344;46.980;28.882;2023-01-06T08:11:20;100712.41;;;7.02;66.59
71857;BME280;63344;46.980;28.882;2023-01-06T08:13:49;100723.94;;;6.98;66.58
71857;BME280;63344;46.980;28.882;2023-01-06T08:16:16;100722.28;;;6.94;66.97
71857;BME280;63344;46.980;28.882;2023-01-06T08:18:43;100716.88;;;6.98;66.57
71857;BME280;63344;46.980;28.882;2023-01-06T08:21:10;100715.19;;;6.96;66.78
71857;BME280;63344;46.980;28.882;2023-01-06T08:23:39;100714.25;;;6.98;66.30
71857;BME280;63344;46.980;28.882;2023-01-06T08:26:13;100727.31;;;7.05;66.30
71857;BME280;63344;46.980;28.882;2023-01-06T08:28:43;100730.78;;;7.07;66.58
71857;BME280;63344;46.980;28.882;2023-01-06T08:31:16;100721.81;;;7.14;65.80
71857;BME280;63344;46.980;28.882;2023-01-06T08:33:44;100726.25;;;7.13;65.35
71857;BME280;63344;46.980;28.882;2023-01-06T08:36:17;100736.53;;;7.24;64.75
71857;BME280;63344;46.980;28.882;2023-01-06T08:38:45;100719.69;;;7.30;64.90
71857;BME280;63344;46.980;28.882;2023-01-06T08:41:15;100727.44;;;7.37;64.02
71857;BME280;63344;46.980;28.882;2023-01-06T08:43:44;100731.72;;;7.43;63.72
71857;BME280;63344;46.980;28.882;2023-01-06T08:46:18;100735.09;;;7.48;63.60
71857;BME280;63344;46.980;28.882;2023-01-06T08:48:46;100733.31;;;7.49;64.01
71857;BME280;63344;46.980;28.882;2023-01-06T08:51:19;100737.75;;;7.47;63.51
71857;BME280;63344;46.980;28.882;2023-01-06T08:53:51;100721.16;;;7.43;63.98
71857;BME280;63344;46.980;28.882;2023-01-06T08:56:31;100728.16;;;7.44;63.78
71857;BME280;63344;46.980;28.882;2023-01-06T08:59:00;100731.66;;;7.45;63.60
71857;BME280;63344;46.980;28.882;2023-01-06T09:01:30;100716.63;;;7.47;63.27
71857;BME280;63344;46.980;28.882;2023-01-06T09:04:05;100708.75;;;7.45;63.37
71857;BME280;63344;46.980;28.882;2023-01-06T09:06:33;100755.09;;;7.58;62.99
71857;BME280;63344;46.980;28.882;2023-01-06T09:09:02;100734.41;;;7.76;63.05
71857;BME280;63344;46.980;28.882;2023-01-06T09:11:30;100749.91;;;7.91;62.27
71857;BME280;63344;46.980;28.882;2023-01-06T09:14:00;100745.16;;;8.03;61.85
71857;BME280;63344;46.980;28.882;2023-01-06T09:16:28;100739.84;;;8.04;61.84
71857;BME280;63344;46.980;28.882;2023-01-06T09:18:56;100757.66;;;7.97;61.72
71857;BME280;63344;46.980;28.882;2023-01-06T09:21:24;100747.97;;;7.96;62.02
71857;BME280;63344;46.980;28.882;2023-01-06T09:23:53;100757.91;;;7.88;61.80
71857;BME280;63344;46.980;28.882;2023-01-06T09:26:23;100752.88;;;7.77;62.01
71857;BME280;63344;46.980;28.882;2023-01-06T09:28:53;100746.13;;;7.66;62.10
71857;BME280;63344;46.980;28.882;2023-01-06T09:31:20;100761.97;;;7.67;62.51
71857;BME280;63344;46.980;28.882;2023-01-06T09:33:47;100762.75;;;7.71;62.55
71857;BME280;63344;46.980;28.882;2023-01-06T09:36:16;100758.44;;;7.67;62.52
71857;BME280;63344;46.980;28.882;2023-01-06T09:38:43;100746.47;;;7.52;62.53
71857;BME280;63344;46.980;28.882;2023-01-06T09:44:12;100777.63;;;7.37;63.81
71857;BME280;63344;46.980;28.882;2023-01-06T09:46:42;100771.53;;;7.35;63.60
71857;BME280;63344;46.980;28.882;2023-01-06T09:52:02;100768.78;;;7.38;64.22
71857;BME280;63344;46.980;28.882;2023-01-06T09:54:36;100773.41;;;7.29;64.01
71857;BME280;63344;46.980;28.882;2023-01-06T09:57:15;100769.25;;;7.18;64.20
71857;BME280;63344;46.980;28.882;2023-01-06T09:59:55;100778.22;;;7.11;64.43
71857;BME280;63344;46.980;28.882;2023-01-06T10:02:41;100786.88;;;7.18;64.43
71857;BME280;63344;46.980;28.882;2023-01-06T10:11:32;100790.03;;;7.73;62.94
71857;BME280;63344;46.980;28.882;2023-01-06T10:17:16;100784.50;;;7.45;62.73
71857;BME280;63344;46.980;28.882;2023-01-06T10:20:16;100788.44;;;7.27;63.59
71857;BME280;63344;46.980;28.882;2023-01-06T10:25:49;100775.84;;;7.38;63.23
71857;BME280;63344;46.980;28.882;2023-01-06T10:28:33;100810.88;;;7.48;62.72
71857;BME280;63344;46.980;28.882;2023-01-06T10:31:06;100813.06;;;7.66;62.33
71857;BME280;63344;46.980;28.882;2023-01-06T10:34:01;100823.75;;;7.99;61.53
71857;BME280;63344;46.980;28.882;2023-01-06T10:36:41;100819.19;;;8.04;60.65
71857;BME280;63344;46.980;28.882;2023-01-06T10:39:18;100798.66;;;7.80;60.75
71857;BME280;63344;46.980;28.882;2023-01-06T10:42:00;100833.50;;;7.60;61.84
71857;BME280;63344;46.980;28.882;2023-01-06T10:44:50;100825.31;;;7.33;61.74
71857;BME280;63344;46.980;28.882;2023-01-06T10:47:32;100827.56;;;7.09;62.89
71857;BME280;63344;46.980;28.882;2023-01-06T10:50:00;100836.47;;;7.05;63.30
71857;BME280;63344;46.980;28.882;2023-01-06T10:52:28;100837.59;;;6.93;63.64
71857;BME280;63344;46.980;28.882;2023-01-06T10:55:02;100836.03;;;6.83;63.86
71857;BME280;63344;46.980;28.882;2023-01-06T10:57:38;100840.53;;;6.78;64.29
71857;BME280;63344;46.980;28.882;2023-01-06T11:00:19;100856.50;;;6.70;64.36
71857;BME280;63344;46.980;28.882;2023-01-06T11:02:54;100838.94;;;6.69;63.80
71857;BME280;63344;46.980;28.882;2023-01-06T11:06:07;100853.13;;;6.64;64.14
71857;BME280;63344;46.980;28.882;2023-01-06T11:08:37;100845.31;;;6.57;63.99
71857;BME280;63344;46.980;28.882;2023-01-06T11:11:16;100851.47;;;6.56;63.67
71857;BME280;63344;46.980;28.882;2023-01-06T11:14:02;100865.63;;;6.52;63.56
71857;BME280;63344;46.980;28.882;2023-01-06T11:16:33;100879.56;;;6.61;63.80
71857;BME280;63344;46.980;28.882;2023-01-06T11:19:04;100884.81;;;6.61;63.01
71857;BME280;63344;46.980;28.882;2023-01-06T11:21:43;100876.88;;;6.62;62.30
71857;BME280;63344;46.980;28.882;2023-01-06T11:24:25;100900.72;;;6.59;61.39
71857;BME280;63344;46.980;28.882;2023-01-06T11:27:01;100883.34;;;6.46;62.31
71857;BME280;63344;46.980;28.882;2023-01-06T11:29:40;100900.00;;;6.49;62.30
71857;BME280;63344;46.980;28.882;2023-01-06T11:32:25;100905.31;;;6.48;62.07
71857;BME280;63344;46.980;28.882;2023-01-06T11:35:05;100910.69;;;6.40;62.15
71857;BME280;63344;46.980;28.882;2023-01-06T11:37:41;100918.72;;;6.34;62.35
71857;BME280;63344;46.980;28.882;2023-01-06T11:40:19;100925.03;;;6.25;62.78
71857;BME280;63344;46.980;28.882;2023-01-06T11:42:50;100924.19;;;6.23;62.17
71857;BME280;63344;46.980;28.882;2023-01-06T11:45:38;100936.59;;;6.15;62.47
71857;BME280;63344;46.980;28.882;2023-01-06T11:48:15;100947.22;;;6.12;62.59
71857;BME280;63344;46.980;28.882;2023-01-06T11:51:04;100947.22;;;6.10;63.15
71857;BME280;63344;46.980;28.882;2023-01-06T11:53:31;100944.56;;;6.12;62.63
71857;BME280;63344;46.980;28.882;2023-01-06T12:04:49;100971.16;;;5.95;62.64
71857;BME280;63344;46.980;28.882;2023-01-06T12:06:55;100975.69;;;5.85;63.32
71857;BME280;63344;46.980;28.882;2023-01-06T12:09:46;100978.34;;;5.84;63.60
71857;BME280;63344;46.980;28.882;2023-01-06T12:12:31;100982.78;;;5.80;63.35
71857;BME280;63344;46.980;28.882;2023-01-06T12:14:59;100985.41;;;5.78;63.53
71857;BME280;63344;46.980;28.882;2023-01-06T12:17:37;100973.06;;;5.85;63.44
71857;BME280;63344;46.980;28.882;2023-01-06T12:20:36;100989.81;;;5.79;63.26
71857;BME280;63344;46.980;28.882;2023-01-06T12:23:10;101012.69;;;5.77;63.36
71857;BME280;63344;46.980;28.882;2023-01-06T12:25:51;101009.13;;;5.80;63.29
71857;BME280;63344;46.980;28.882;2023-01-06T12:28:37;101000.47;;;5.69;62.97
71857;BME280;63344;46.980;28.882;2023-01-06T12:31:19;100998.72;;;5.69;62.76
71857;BME280;63344;46.980;28.882;2023-01-06T12:33:53;101019.91;;;5.62;62.75
71857;BME280;63344;46.980;28.882;2023-01-06T12:39:12;101018.19;;;5.57;63.22
71857;BME280;63344;46.980;28.882;2023-01-06T12:47:00;101020.09;;;5.43;63.48
71857;BME280;63344;46.980;28.882;2023-01-06T12:49:47;101031.59;;;5.36;63.54
71857;BME280;63344;46.980;28.882;2023-01-06T12:52:22;101045.63;;;5.36;63.33
71857;BME280;63344;46.980;28.882;2023-01-06T12:54:52;101059.66;;;5.38;63.65
71857;BME280;63344;46.980;28.882;2023-01-06T13:00:42;101081.72;;;5.30;63.41
71857;BME280;63344;46.980;28.882;2023-01-06T13:03:27;101080.91;;;5.20;63.99
71857;BME280;63344;46.980;28.882;2023-01-06T13:06:24;101087.97;;;5.15;63.86
71857;BME280;63344;46.980;28.882;2023-01-06T13:09:21;101074.84;;;5.12;63.60
71857;BME280;63344;46.980;28.882;2023-01-06T13:15:30;101088.13;;;4.96;62.10
71857;BME280;63344;46.980;28.882;2023-01-06T13:20:54;101087.34;;;4.87;61.72
71857;BME280;63344;46.980;28.882;2023-01-06T13:31:45;101131.25;;;4.80;62.51
71857;BME280;63344;46.980;28.882;2023-01-06T13:40:11;101152.44;;;4.60;63.25
71857;BME280;63344;46.980;28.882;2023-01-06T13:42:50;101160.31;;;4.57;63.54
71857;BME280;63344;46.980;28.882;2023-01-06T13:45:47;101170.88;;;4.54;63.42
71857;BME280;63344;46.980;28.882;2023-01-06T13:48:19;101179.66;;;4.48;63.95
71857;BME280;63344;46.980;28.882;2023-01-06T13:50:49;101172.63;;;4.50;63.89
71857;BME280;63344;46.980;28.882;2023-01-06T13:53:19;101177.03;;;4.51;63.92
71857;BME280;63344;46.980;28.882;2023-01-06T13:58:42;101161.22;;;4.53;63.61
71857;BME280;63344;46.980;28.882;2023-01-06T14:06:58;101150.75;;;4.41;63.39
71857;BME280;63344;46.980;28.882;2023-01-06T14:09:27;101161.28;;;4.41;64.02
71857;BME280;63344;46.980;28.882;2023-01-06T14:12:07;101164.81;;;4.39;64.06
71857;BME280;63344;46.980;28.882;2023-01-06T14:14:37;101158.66;;;4.39;64.12
71857;BME280;63344;46.980;28.882;2023-01-06T14:17:05;101172.69;;;4.39;64.15
71857;BME280;63344;46.980;28.882;2023-01-06T14:19:35;101184.13;;;4.35;63.78
71857;BME280;63344;46.980;28.882;2023-01-06T14:22:18;101181.47;;;4.29;64.13
71857;BME280;63344;46.980;28.882;2023-01-06T14:24:55;101188.50;;;4.29;63.82
71857;BME280;63344;46.980;28.882;2023-01-06T14:30:32;101209.56;;;4.24;64.12
71857;BME280;63344;46.980;28.882;2023-01-06T14:33:21;101180.72;;;4.03;64.19
71857;BME280;63344;46.980;28.882;2023-01-06T14:35:50;101199.09;;;4.09;64.07
71857;BME280;63344;46.980;28.882;2023-01-06T14:38:29;101209.63;;;4.04;64.13
71857;BME280;63344;46.980;28.882;2023-01-06T14:41:06;101231.50;;;4.05;63.74
71857;BME280;63344;46.980;28.882;2023-01-06T14:43:49;101215.75;;;3.98;63.10
71857;BME280;63344;46.980;28.882;2023-01-06T14:46:26;101215.78;;;3.95;63.17
71857;BME280;63344;46.980;28.882;2023-01-06T14:48:59;101231.53;;;3.91;63.21
71857;BME280;63344;46.980;28.882;2023-01-06T14:51:28;101240.28;;;3.91;62.87
71857;BME280;63344;46.980;28.882;2023-01-06T14:54:21;101229.78;;;3.87;62.82
71857;BME280;63344;46.980;28.882;2023-01-06T14:56:59;101243.81;;;3.90;62.96
71857;BME280;63344;46.980;28.882;2023-01-06T14:59:27;101235.94;;;3.83;62.40
71857;BME280;63344;46.980;28.882;2023-01-06T15:02:03;101246.44;;;3.75;62.29
71857;BME280;63344;46.980;28.882;2023-01-06T15:04:32;101256.97;;;3.79;62.05
71857;BME280;63344;46.980;28.882;2023-01-06T15:07:20;101261.34;;;3.70;62.45
71857;BME280;63344;46.980;28.882;2023-01-06T15:09:49;101270.06;;;3.67;62.83